createdAt,value
2023-12-26T00:00:13.204Z,5.63
2023-12-26T00:02:40.026Z,2.30
2023-12-26T00:05:07.491Z,2.88
2023-12-26T00:07:34.196Z,2.50
2023-12-26T00:10:01.162Z,2.40
2023-12-26T00:12:28.153Z,4.68
2023-12-26T00:14:54.961Z,2.58
2023-12-26T00:17:23.300Z,2.40
2023-12-26T00:19:51.152Z,2.08
2023-12-26T00:22:18.109Z,2.10
2023-12-26T00:24:46.899Z,2.40
2023-12-26T00:27:13.813Z,2.10
2023-12-26T00:29:41.888Z,2.92
2023-12-26T00:32:08.573Z,2.40
2023-12-26T00:34:35.565Z,2.33
2023-12-26T00:37:02.980Z,2.30
2023-12-26T00:39:29.635Z,2.00
2023-12-26T00:41:56.421Z,3.92
2023-12-26T00:44:23.392Z,2.20
2023-12-26T00:46:50.176Z,2.17
2023-12-26T00:49:17.055Z,2.10
2023-12-26T00:51:44.070Z,2.35
2023-12-26T00:54:12.890Z,1.90
2023-12-26T00:56:39.667Z,2.58
2023-12-26T00:59:06.407Z,2.20
2023-12-26T01:01:33.176Z,2.17
2023-12-26T01:04:00.290Z,2.30
2023-12-26T01:06:28.277Z,2.00
2023-12-26T01:08:55.051Z,2.20
2023-12-26T01:11:24.898Z,1.92
2023-12-26T01:13:52.692Z,3.28
2023-12-26T01:16:20.982Z,6.03
2023-12-26T01:18:48.170Z,2.00
2023-12-26T01:21:15.181Z,2.20
2023-12-26T01:23:42.018Z,2.20
2023-12-26T01:26:08.834Z,2.20
2023-12-26T01:28:35.974Z,2.10
2023-12-26T01:31:02.796Z,2.33
2023-12-26T01:33:29.866Z,2.30
2023-12-26T01:35:56.725Z,2.30
2023-12-26T01:38:24.471Z,2.05
2023-12-26T01:40:51.303Z,2.20
2023-12-26T01:43:18.494Z,2.88
2023-12-26T01:45:45.235Z,1.98
2023-12-26T01:48:12.145Z,2.22
2023-12-26T01:50:39.289Z,3.40
2023-12-26T01:53:06.268Z,1.98
2023-12-26T01:55:33.142Z,2.50
2023-12-26T01:58:00.285Z,2.25
2023-12-26T02:00:27.082Z,2.15
2023-12-26T02:02:54.770Z,2.35
2023-12-26T02:05:22.493Z,2.05
2023-12-26T02:07:49.316Z,1.90
2023-12-26T02:10:16.241Z,2.15
2023-12-26T02:12:44.452Z,2.10
2023-12-26T02:15:12.268Z,1.70
2023-12-26T02:17:39.442Z,2.10
2023-12-26T02:20:06.811Z,1.80
2023-12-26T02:22:33.811Z,1.95
2023-12-26T02:25:00.553Z,2.00
2023-12-26T02:27:30.507Z,4.10
2023-12-26T02:29:59.177Z,2.00
2023-12-26T02:32:27.235Z,1.60
2023-12-26T02:35:01.610Z,2.30
2023-12-26T02:37:28.660Z,1.90
2023-12-26T02:39:55.495Z,2.15
2023-12-26T02:42:23.603Z,2.22
2023-12-26T02:44:50.517Z,3.28
2023-12-26T02:47:17.341Z,3.08
2023-12-26T02:49:45.221Z,2.10
2023-12-26T02:52:12.851Z,2.00
2023-12-26T02:54:39.608Z,2.17
2023-12-26T02:57:06.625Z,1.85
2023-12-26T02:59:34.373Z,1.95
2023-12-26T03:02:01.172Z,1.70
2023-12-26T03:04:27.944Z,2.00
2023-12-26T03:06:55.085Z,2.03
2023-12-26T03:09:23.392Z,1.58
2023-12-26T03:11:50.403Z,1.85
2023-12-26T03:14:17.260Z,1.92
2023-12-26T03:16:44.094Z,2.40
2023-12-26T03:19:12.233Z,2.20
2023-12-26T03:21:39.502Z,2.45
2023-12-26T03:24:06.654Z,2.60
2023-12-26T03:26:33.906Z,2.10
2023-12-26T03:29:00.667Z,2.38
2023-12-26T03:31:27.518Z,2.33
2023-12-26T03:33:56.793Z,2.25
2023-12-26T03:36:24.729Z,4.97
2023-12-26T03:38:51.427Z,2.10
2023-12-26T03:41:18.402Z,2.58
2023-12-26T03:43:45.184Z,2.15
2023-12-26T03:46:13.030Z,2.30
2023-12-26T03:48:40.100Z,2.00
2023-12-26T03:51:07.031Z,2.40
2023-12-26T03:53:34.835Z,2.28
2023-12-26T03:56:01.608Z,4.00
2023-12-26T03:58:28.340Z,2.40
2023-12-26T04:00:55.486Z,2.10
2023-12-26T04:03:22.493Z,1.98
2023-12-26T04:05:50.357Z,1.70
2023-12-26T04:08:17.099Z,1.95
2023-12-26T04:10:44.854Z,1.65
2023-12-26T04:13:12.372Z,2.05
2023-12-26T04:15:40.073Z,2.55
2023-12-26T04:18:08.924Z,1.92
2023-12-26T04:20:35.755Z,1.70
2023-12-26T04:23:02.472Z,1.83
2023-12-26T04:25:29.203Z,1.58
2023-12-26T04:27:56.087Z,1.80
2023-12-26T04:30:22.997Z,1.85
2023-12-26T04:32:50.857Z,1.98
2023-12-26T04:35:18.601Z,2.15
2023-12-26T04:37:45.444Z,2.10
2023-12-26T04:40:12.682Z,2.88
2023-12-26T04:42:39.615Z,2.88
2023-12-26T04:45:06.685Z,2.22
2023-12-26T04:47:33.545Z,2.90
2023-12-26T04:50:01.304Z,2.63
2023-12-26T04:52:28.109Z,3.38
2023-12-26T04:54:54.954Z,3.50
2023-12-26T04:57:21.713Z,3.50
2023-12-26T04:59:48.609Z,4.10
2023-12-26T05:02:15.535Z,4.32
2023-12-26T05:04:42.343Z,3.67
2023-12-26T05:07:09.418Z,3.95
2023-12-26T05:09:36.923Z,3.97
2023-12-26T05:12:04.332Z,4.55
2023-12-26T05:14:31.061Z,3.30
2023-12-26T05:16:57.862Z,4.93
2023-12-26T05:19:24.765Z,3.95
2023-12-26T05:21:52.226Z,4.20
2023-12-26T05:24:18.955Z,4.28
2023-12-26T05:26:45.771Z,5.10
2023-12-26T05:29:13.206Z,3.70
2023-12-26T05:31:39.956Z,3.50
2023-12-26T05:34:08.964Z,3.10
2023-12-26T05:36:37.565Z,4.55
2023-12-26T05:39:05.217Z,6.43
2023-12-26T05:41:32.154Z,4.72
2023-12-26T05:43:59.926Z,7.32
2023-12-26T05:46:30.350Z,3.65
2023-12-26T05:48:58.167Z,2.92
2023-12-26T05:51:26.499Z,3.33
2023-12-26T05:53:53.476Z,3.92
2023-12-26T05:56:21.093Z,5.63
2023-12-26T05:58:48.897Z,3.45
2023-12-26T06:01:16.412Z,5.93
2023-12-26T06:03:43.499Z,5.50
2023-12-26T06:06:14.920Z,4.65
2023-12-26T06:08:43.937Z,3.30
2023-12-26T06:11:11.824Z,3.80
2023-12-26T06:13:39.065Z,3.45
2023-12-26T06:16:07.933Z,3.60
2023-12-26T06:18:34.794Z,4.47
2023-12-26T06:21:01.658Z,2.90
2023-12-26T06:23:29.514Z,3.85
2023-12-26T06:25:57.560Z,7.35
2023-12-26T06:28:25.144Z,4.22
2023-12-26T06:30:51.929Z,4.63
2023-12-26T06:33:20.624Z,4.80
2023-12-26T06:35:47.630Z,4.72
2023-12-26T06:38:14.431Z,5.97
2023-12-26T06:40:41.914Z,4.88
2023-12-26T06:43:10.320Z,6.50
2023-12-26T06:45:38.217Z,6.32
2023-12-26T06:48:05.661Z,5.35
2023-12-26T06:50:32.687Z,6.15
2023-12-26T06:53:00.462Z,8.85
2023-12-26T06:55:27.207Z,7.38
2023-12-26T06:57:53.995Z,10.68
2023-12-26T07:00:21.695Z,9.93
2023-12-26T07:02:49.142Z,4.70
2023-12-26T07:05:16.021Z,5.75
2023-12-26T07:07:42.709Z,10.93
2023-12-26T07:10:09.583Z,9.30
2023-12-26T07:12:38.646Z,5.90
2023-12-26T07:15:06.934Z,5.68
2023-12-26T07:17:34.409Z,8.77
2023-12-26T07:20:01.205Z,4.95
2023-12-26T07:22:27.993Z,6.88
2023-12-26T07:24:54.693Z,5.03
2023-12-26T07:27:21.547Z,9.95
2023-12-26T07:29:48.312Z,8.93
2023-12-26T07:32:15.071Z,4.22
2023-12-26T07:34:42.971Z,4.68
2023-12-26T07:37:09.924Z,7.75
2023-12-26T07:39:36.623Z,7.82
2023-12-26T07:42:04.138Z,9.93
2023-12-26T07:44:31.012Z,5.55
2023-12-26T07:46:57.775Z,6.80
2023-12-26T07:49:25.612Z,6.63
2023-12-26T07:51:52.692Z,6.63
2023-12-26T07:54:19.386Z,9.55
2023-12-26T07:56:46.113Z,5.80
2023-12-26T07:59:13.998Z,6.40
2023-12-26T08:01:40.750Z,7.15
2023-12-26T08:04:07.623Z,8.27
2023-12-26T08:06:34.508Z,10.75
2023-12-26T08:09:02.550Z,6.72
2023-12-26T08:11:29.374Z,10.88
2023-12-26T08:13:56.071Z,5.78
2023-12-26T08:16:22.956Z,8.65
2023-12-26T08:18:49.910Z,8.82
2023-12-26T08:21:17.802Z,6.82
2023-12-26T08:23:45.571Z,5.47
2023-12-26T08:26:12.340Z,12.60
2023-12-26T08:28:39.217Z,6.30
2023-12-26T08:31:08.035Z,9.30
2023-12-26T08:33:36.900Z,10.48
2023-12-26T08:36:05.198Z,5.70
2023-12-26T08:38:32.978Z,7.78
2023-12-26T08:40:59.796Z,3.72
2023-12-26T08:43:26.591Z,3.75
2023-12-26T08:45:53.345Z,4.07
2023-12-26T08:48:20.277Z,8.40
2023-12-26T08:50:47.482Z,6.90
2023-12-26T08:53:14.393Z,9.38
2023-12-26T08:55:41.407Z,8.25
2023-12-26T08:58:19.009Z,5.50
2023-12-26T09:00:47.408Z,5.05
2023-12-26T09:03:14.710Z,7.22
2023-12-26T09:05:42.200Z,5.47
2023-12-26T09:08:08.910Z,7.43
2023-12-26T09:10:35.801Z,8.15
2023-12-26T09:13:02.662Z,8.60
2023-12-26T09:15:29.393Z,7.78
2023-12-26T09:17:56.303Z,8.40
2023-12-26T09:20:23.061Z,6.95
2023-12-26T09:22:52.063Z,11.35
2023-12-26T09:25:19.811Z,10.57
2023-12-26T09:27:46.582Z,7.68
2023-12-26T09:30:14.898Z,9.02
2023-12-26T09:32:42.178Z,9.55
2023-12-26T09:35:09.649Z,9.73
2023-12-26T09:37:40.054Z,8.77
2023-12-26T09:40:08.686Z,7.32
2023-12-26T09:42:35.493Z,15.75
2023-12-26T09:45:04.864Z,5.15
2023-12-26T09:47:33.096Z,5.93
2023-12-26T09:50:02.255Z,10.98
2023-12-26T09:52:33.151Z,8.50
2023-12-26T09:55:00.359Z,9.02
2023-12-26T09:57:27.298Z,8.27
2023-12-26T09:59:54.527Z,7.82
2023-12-26T10:02:21.359Z,8.98
2023-12-26T10:04:48.176Z,6.60
2023-12-26T10:07:21.120Z,9.68
2023-12-26T10:09:49.439Z,7.97
2023-12-26T10:12:16.352Z,13.38
2023-12-26T10:14:43.131Z,7.50
2023-12-26T10:17:11.493Z,6.80
2023-12-26T10:19:39.825Z,9.45
2023-12-26T10:22:06.583Z,4.55
2023-12-26T10:24:34.480Z,11.00
2023-12-26T10:27:01.475Z,8.98
2023-12-26T10:29:28.265Z,7.57
2023-12-26T10:31:55.410Z,9.18
2023-12-26T10:34:22.711Z,11.13
2023-12-26T10:36:51.027Z,7.07
2023-12-26T10:39:20.845Z,6.00
2023-12-26T10:41:49.455Z,8.38
2023-12-26T10:44:17.947Z,10.93
2023-12-26T10:46:46.832Z,10.73
2023-12-26T10:49:22.606Z,11.82
2023-12-26T10:51:49.630Z,9.07
2023-12-26T10:54:21.444Z,7.70
2023-12-26T10:56:52.536Z,12.98
2023-12-26T11:00:15.699Z,7.45
2023-12-26T11:03:38.887Z,11.10
2023-12-26T11:07:02.037Z,9.63
2023-12-26T11:10:25.461Z,9.30
2023-12-26T11:13:48.436Z,13.27
2023-12-26T11:17:11.776Z,4.68
2023-12-26T11:20:34.882Z,9.63
2023-12-26T11:23:57.902Z,12.13
2023-12-26T11:27:21.261Z,10.90
2023-12-26T11:30:46.472Z,8.43
2023-12-26T11:34:09.925Z,10.68
2023-12-26T11:37:33.225Z,10.80
2023-12-26T11:40:56.360Z,6.63
2023-12-26T11:44:19.667Z,10.85
2023-12-26T11:47:42.587Z,7.85
2023-12-26T11:51:06.195Z,4.78
2023-12-26T11:54:29.522Z,9.75
2023-12-26T11:57:52.306Z,10.25
2023-12-26T12:01:15.849Z,9.02
2023-12-26T12:04:38.920Z,8.73
2023-12-26T12:08:02.214Z,8.10
2023-12-26T12:11:27.054Z,12.43
2023-12-26T12:14:50.443Z,8.93
2023-12-26T12:18:14.028Z,10.38
2023-12-26T12:21:37.672Z,10.52
2023-12-26T12:25:01.506Z,10.80
2023-12-26T12:28:24.825Z,6.55
2023-12-26T12:31:48.148Z,10.98
2023-12-26T12:35:11.295Z,4.97
2023-12-26T12:38:34.374Z,9.07
2023-12-26T12:41:57.647Z,11.88
2023-12-26T12:45:20.899Z,7.15
2023-12-26T12:48:44.252Z,7.55
2023-12-26T12:52:07.486Z,7.60
2023-12-26T12:55:30.826Z,8.13
2023-12-26T12:58:53.863Z,9.93
2023-12-26T13:02:17.086Z,10.18
2023-12-26T13:05:39.930Z,5.03
2023-12-26T13:09:03.228Z,11.50
2023-12-26T13:12:26.583Z,7.28
2023-12-26T13:15:50.588Z,9.20
2023-12-26T13:19:14.924Z,12.27
2023-12-26T13:22:44.488Z,9.43
2023-12-26T13:26:07.867Z,11.00
2023-12-26T13:29:30.899Z,9.30
2023-12-26T13:32:54.062Z,11.18
2023-12-26T13:36:16.998Z,8.55
2023-12-26T13:39:42.207Z,7.65
2023-12-26T13:43:05.405Z,10.23
2023-12-26T13:46:28.522Z,9.85
2023-12-26T13:49:51.827Z,12.07
2023-12-26T13:52:37.038Z,9.38
2023-12-26T13:55:23.235Z,9.23
2023-12-26T13:58:08.851Z,11.88
2023-12-26T14:00:35.717Z,8.00
2023-12-26T14:03:21.736Z,11.15
2023-12-26T14:06:07.517Z,7.03
2023-12-26T14:08:34.203Z,9.30
2023-12-26T14:11:20.229Z,8.20
2023-12-26T14:14:05.708Z,11.65
2023-12-26T14:16:51.154Z,9.45
2023-12-26T14:19:36.766Z,12.77
2023-12-26T14:22:24.964Z,10.70
2023-12-26T14:25:10.345Z,15.02
2023-12-26T14:27:55.780Z,14.77
2023-12-26T14:30:41.356Z,8.93
2023-12-26T14:33:08.600Z,9.05
2023-12-26T14:36:13.137Z,9.85
2023-12-26T14:39:17.287Z,8.73
2023-12-26T14:41:43.980Z,10.50
2023-12-26T14:44:29.572Z,7.40
2023-12-26T14:47:15.231Z,9.32
2023-12-26T14:49:41.970Z,15.93
2023-12-26T14:52:27.630Z,8.43
2023-12-26T14:54:54.461Z,8.95
2023-12-26T14:57:21.221Z,5.88
2023-12-26T14:59:48.052Z,13.85
2023-12-26T15:02:14.807Z,13.10
2023-12-26T15:04:41.719Z,12.15
2023-12-26T15:07:09.223Z,9.85
2023-12-26T15:09:36.049Z,9.02
2023-12-26T15:12:03.067Z,12.68
2023-12-26T15:14:41.955Z,12.98
2023-12-26T15:17:12.185Z,17.15
2023-12-26T15:19:39.365Z,13.68
2023-12-26T15:22:06.484Z,12.15
2023-12-26T15:24:33.609Z,9.13
2023-12-26T15:27:00.966Z,13.70
2023-12-26T15:29:28.801Z,15.15
2023-12-26T15:31:55.641Z,9.63
2023-12-26T15:34:22.496Z,10.95
2023-12-26T15:36:50.474Z,8.57
2023-12-26T15:39:20.150Z,11.38
2023-12-26T15:41:47.666Z,9.93
2023-12-26T15:44:16.690Z,9.88
2023-12-26T15:46:43.441Z,8.23
2023-12-26T15:49:10.519Z,13.00
2023-12-26T15:51:38.377Z,13.52
2023-12-26T15:54:05.423Z,10.30
2023-12-26T15:56:32.904Z,8.07
2023-12-26T15:58:59.714Z,10.70
2023-12-26T16:01:26.940Z,12.05
2023-12-26T16:03:57.512Z,14.40
2023-12-26T16:06:25.917Z,7.20
2023-12-26T16:08:53.462Z,14.90
2023-12-26T16:11:20.952Z,15.10
2023-12-26T16:13:48.087Z,13.32
2023-12-26T16:16:16.974Z,11.98
2023-12-26T16:18:44.203Z,8.82
2023-12-26T16:21:12.569Z,13.45
2023-12-26T16:23:39.439Z,12.98
2023-12-26T16:26:07.115Z,11.30
2023-12-26T16:28:37.141Z,10.52
2023-12-26T16:31:05.565Z,9.53
2023-12-26T16:33:34.128Z,11.77
2023-12-26T16:36:02.743Z,8.93
2023-12-26T16:38:29.777Z,20.40
2023-12-26T16:40:58.369Z,14.80
2023-12-26T16:43:26.730Z,17.52
2023-12-26T16:45:53.544Z,13.35
2023-12-26T16:48:20.713Z,12.52
2023-12-26T16:50:47.766Z,10.75
2023-12-26T16:53:14.656Z,10.88
2023-12-26T16:55:41.497Z,9.10
2023-12-26T16:58:10.308Z,12.75
2023-12-26T17:00:39.389Z,13.65
2023-12-26T17:03:06.841Z,12.95
2023-12-26T17:05:33.830Z,10.45
2023-12-26T17:08:00.752Z,12.90
2023-12-26T17:10:27.580Z,13.85
2023-12-26T17:12:54.685Z,12.15
2023-12-26T17:15:21.599Z,13.45
2023-12-26T17:17:48.438Z,10.98
2023-12-26T17:20:15.278Z,13.63
2023-12-26T17:22:43.338Z,14.10
2023-12-26T17:25:10.277Z,15.63
2023-12-26T17:27:43.258Z,11.65
2023-12-26T17:30:10.662Z,13.75
2023-12-26T17:32:37.613Z,14.88
2023-12-26T17:35:05.817Z,14.63
2023-12-26T17:37:32.809Z,14.23
2023-12-26T17:39:59.863Z,11.45
2023-12-26T17:42:26.894Z,13.98
2023-12-26T17:44:55.927Z,10.63
2023-12-26T17:47:22.785Z,12.88
2023-12-26T17:49:52.353Z,9.10
2023-12-26T17:52:20.139Z,20.73
2023-12-26T17:54:46.930Z,8.02
2023-12-26T17:57:14.253Z,10.82
2023-12-26T17:59:41.214Z,17.30
2023-12-26T18:02:08.082Z,14.30
2023-12-26T18:04:35.605Z,11.02
2023-12-26T18:07:02.334Z,6.82
2023-12-26T18:09:29.151Z,11.65
2023-12-26T18:11:56.041Z,15.93
2023-12-26T18:14:23.850Z,11.73
2023-12-26T18:16:50.636Z,11.93
2023-12-26T18:19:17.467Z,10.73
2023-12-26T18:21:45.873Z,9.07
2023-12-26T18:24:12.842Z,11.43
2023-12-26T18:26:40.992Z,14.07
2023-12-26T18:29:09.184Z,14.73
2023-12-26T18:31:36.059Z,14.13
2023-12-26T18:34:04.226Z,12.48
2023-12-26T18:36:31.760Z,9.90
2023-12-26T18:38:59.844Z,10.85
2023-12-26T18:41:26.718Z,8.77
2023-12-26T18:43:53.561Z,10.45
2023-12-26T18:46:20.924Z,12.57
2023-12-26T18:48:48.065Z,11.95
2023-12-26T18:51:24.318Z,13.35
2023-12-26T18:54:01.797Z,13.68
2023-12-26T18:56:29.575Z,18.90
2023-12-26T18:58:57.323Z,7.97
2023-12-26T19:01:24.142Z,8.32
2023-12-26T19:03:52.013Z,10.27
2023-12-26T19:06:19.209Z,9.82
2023-12-26T19:08:46.655Z,10.65
2023-12-26T19:11:18.214Z,10.15
2023-12-26T19:13:46.397Z,9.18
2023-12-26T19:16:13.320Z,8.40
2023-12-26T19:18:40.353Z,10.18
2023-12-26T19:21:07.243Z,8.32
2023-12-26T19:23:34.766Z,11.23
2023-12-26T19:26:01.678Z,13.30
2023-12-26T19:28:28.498Z,8.68
2023-12-26T19:30:55.571Z,11.35
2023-12-26T19:33:23.306Z,11.70
2023-12-26T19:35:50.716Z,10.02
2023-12-26T19:38:18.849Z,6.15
2023-12-26T19:40:45.573Z,8.68
2023-12-26T19:43:12.514Z,17.90
2023-12-26T19:45:39.653Z,9.30
2023-12-26T19:48:07.356Z,9.93
2023-12-26T19:50:34.525Z,10.45
2023-12-26T19:53:01.424Z,9.48
2023-12-26T19:55:28.226Z,10.70
2023-12-26T19:57:55.605Z,9.93
2023-12-26T20:00:22.779Z,7.28
2023-12-26T20:02:50.341Z,8.70
2023-12-26T20:05:17.418Z,9.02
2023-12-26T20:07:44.242Z,8.90
2023-12-26T20:10:11.202Z,9.70
2023-12-26T20:12:38.411Z,6.93
2023-12-26T20:15:06.007Z,8.48
2023-12-26T20:17:33.072Z,8.93
2023-12-26T20:20:00.034Z,7.43
2023-12-26T20:22:26.933Z,14.18
2023-12-26T20:24:54.984Z,8.05
2023-12-26T20:27:23.003Z,11.85
2023-12-26T20:29:50.056Z,12.27
2023-12-26T20:32:16.871Z,11.98
2023-12-26T20:34:44.805Z,7.68
2023-12-26T20:37:11.544Z,12.95
2023-12-26T20:39:40.334Z,14.13
2023-12-26T20:42:07.326Z,8.65
2023-12-26T20:44:34.141Z,8.65
2023-12-26T20:47:00.892Z,13.88
2023-12-26T20:49:29.973Z,15.80
2023-12-26T20:51:58.338Z,9.93
2023-12-26T20:54:25.553Z,8.32
2023-12-26T20:56:52.870Z,8.77
2023-12-26T20:59:21.359Z,14.77
2023-12-26T21:01:49.085Z,10.20
2023-12-26T21:04:17.450Z,11.40
2023-12-26T21:06:47.517Z,12.88
2023-12-26T21:09:15.143Z,7.03
2023-12-26T21:11:42.144Z,10.30
2023-12-26T21:14:09.400Z,15.88
2023-12-26T21:16:37.948Z,16.98
2023-12-26T21:19:05.864Z,13.57
2023-12-26T21:21:32.943Z,10.93
2023-12-26T21:24:01.893Z,15.27
2023-12-26T21:26:29.981Z,13.18
2023-12-26T21:28:57.444Z,14.45
2023-12-26T21:31:24.808Z,11.75
2023-12-26T21:33:51.721Z,13.07
2023-12-26T21:36:22.660Z,10.95
2023-12-26T21:41:19.755Z,7.40
2023-12-26T21:43:46.753Z,13.90
2023-12-26T21:46:14.662Z,10.32
2023-12-26T21:48:43.183Z,12.85
2023-12-26T21:51:13.888Z,13.85
2023-12-26T21:53:42.834Z,15.82
2023-12-26T21:56:18.595Z,11.15
2023-12-26T21:58:46.521Z,16.55
2023-12-26T22:01:13.396Z,15.82
2023-12-26T22:03:42.427Z,11.20
2023-12-26T22:06:09.654Z,12.48
2023-12-26T22:08:36.701Z,12.27
2023-12-26T22:11:03.570Z,16.85
2023-12-26T22:13:30.372Z,15.68
2023-12-26T22:15:57.929Z,14.98
2023-12-26T22:18:24.909Z,16.10
2023-12-26T22:20:52.641Z,22.85
2023-12-26T22:23:19.714Z,11.20
2023-12-26T22:25:46.558Z,10.60
2023-12-26T22:28:13.218Z,13.45
2023-12-26T22:30:40.098Z,15.98
2023-12-26T22:33:07.981Z,14.77
2023-12-26T22:35:36.269Z,16.65
2023-12-26T22:38:03.119Z,21.00
2023-12-26T22:40:29.813Z,16.35
2023-12-26T22:42:56.486Z,11.32
2023-12-26T22:45:23.458Z,12.32
2023-12-26T22:47:51.247Z,11.40
2023-12-26T22:50:18.743Z,12.00
2023-12-26T22:52:45.546Z,11.15
2023-12-26T22:55:12.631Z,14.07
2023-12-26T22:57:40.032Z,11.85
2023-12-26T23:00:17.381Z,12.43
2023-12-26T23:02:44.195Z,14.25
2023-12-26T23:05:11.501Z,18.00
2023-12-26T23:07:39.397Z,17.38
2023-12-26T23:10:07.732Z,13.75
2023-12-26T23:12:34.615Z,14.20
2023-12-26T23:15:01.505Z,15.20
2023-12-26T23:17:28.358Z,19.80
2023-12-26T23:19:55.483Z,16.85
2023-12-26T23:22:22.758Z,15.07
2023-12-26T23:24:49.703Z,11.98
2023-12-26T23:27:16.452Z,17.77
2023-12-26T23:29:43.355Z,14.88
2023-12-26T23:32:09.998Z,13.60
2023-12-26T23:34:44.051Z,16.33
2023-12-26T23:37:15.293Z,16.42
2023-12-26T23:39:45.815Z,15.02
2023-12-26T23:42:12.846Z,12.40
2023-12-26T23:44:41.880Z,14.70
2023-12-26T23:47:13.351Z,13.77
2023-12-26T23:49:40.432Z,9.00
2023-12-26T23:52:08.370Z,12.75
2023-12-26T23:54:35.618Z,17.75
2023-12-26T23:57:02.448Z,12.20
2023-12-26T23:59:29.244Z,13.20
